sensor_id;sensor_type;location;lat;lon;timestamp;temperature;humidity
1107;DHT22;540;49.448;8.612;2024-02-26T00:01:53;10.70;66.30
1107;DHT22;540;49.448;8.612;2024-02-26T00:04:22;11.00;65.90
1107;DHT22;540;49.448;8.612;2024-02-26T00:06:50;11.10;65.90
1107;DHT22;540;49.448;8.612;2024-02-26T00:09:21;11.10;65.90
1107;DHT22;540;49.448;8.612;2024-02-26T00:11:48;10.90;65.70
1107;DHT22;540;49.448;8.612;2024-02-26T00:14:16;11.10;65.30
1107;DHT22;540;49.448;8.612;2024-02-26T00:16:44;10.90;65.30
1107;DHT22;540;49.448;8.612;2024-02-26T00:19:12;11.00;65.50
1107;DHT22;540;49.448;8.612;2024-02-26T00:21:42;11.10;66.10
1107;DHT22;540;49.448;8.612;2024-02-26T00:24:10;10.90;65.40
1107;DHT22;540;49.448;8.612;2024-02-26T00:26:37;10.90;65.80
1107;DHT22;540;49.448;8.612;2024-02-26T00:29:05;10.90;66.10
1107;DHT22;540;49.448;8.612;2024-02-26T00:31:33;10.60;66.50
1107;DHT22;540;49.448;8.612;2024-02-26T00:34:01;10.80;66.50
1107;DHT22;540;49.448;8.612;2024-02-26T00:36:29;10.90;66.00
1107;DHT22;540;49.448;8.612;2024-02-26T00:38:59;11.00;66.60
1107;DHT22;540;49.448;8.612;2024-02-26T00:41:27;11.00;67.10
1107;DHT22;540;49.448;8.612;2024-02-26T00:43:54;10.70;66.40
1107;DHT22;540;49.448;8.612;2024-02-26T00:46:22;11.00;67.00
1107;DHT22;540;49.448;8.612;2024-02-26T00:48:50;10.70;67.50
1107;DHT22;540;49.448;8.612;2024-02-26T00:51:18;11.00;67.20
1107;DHT22;540;49.448;8.612;2024-02-26T00:53:50;11.10;67.00
1107;DHT22;540;49.448;8.612;2024-02-26T00:56:19;10.70;66.50
1107;DHT22;540;49.448;8.612;2024-02-26T00:58:47;11.00;67.00
1107;DHT22;540;49.448;8.612;2024-02-26T01:01:15;10.70;66.80
1107;DHT22;540;49.448;8.612;2024-02-26T01:03:43;10.80;66.30
1107;DHT22;540;49.448;8.612;2024-02-26T01:06:11;11.10;66.30
1107;DHT22;540;49.448;8.612;2024-02-26T01:08:39;11.10;65.90
1107;DHT22;540;49.448;8.612;2024-02-26T01:11:07;10.90;65.90
1107;DHT22;540;49.448;8.612;2024-02-26T01:13:37;10.60;66.00
1107;DHT22;540;49.448;8.612;2024-02-26T01:16:05;10.60;66.50
1107;DHT22;540;49.448;8.612;2024-02-26T01:18:33;10.50;66.50
1107;DHT22;540;49.448;8.612;2024-02-26T01:21:01;10.40;66.40
1107;DHT22;540;49.448;8.612;2024-02-26T01:23:28;10.60;66.80
1107;DHT22;540;49.448;8.612;2024-02-26T01:25:56;10.60;67.30
1107;DHT22;540;49.448;8.612;2024-02-26T01:28:24;10.40;67.10
1107;DHT22;540;49.448;8.612;2024-02-26T01:30:53;10.90;68.80
1107;DHT22;540;49.448;8.612;2024-02-26T01:33:21;10.70;68.90
1107;DHT22;540;49.448;8.612;2024-02-26T01:35:49;10.80;69.60
1107;DHT22;540;49.448;8.612;2024-02-26T01:38:17;10.40;69.50
1107;DHT22;540;49.448;8.612;2024-02-26T01:40:45;10.50;69.60
1107;DHT22;540;49.448;8.612;2024-02-26T01:43:12;10.50;69.50
1107;DHT22;540;49.448;8.612;2024-02-26T01:45:40;10.70;70.40
1107;DHT22;540;49.448;8.612;2024-02-26T01:48:09;10.50;71.10
1107;DHT22;540;49.448;8.612;2024-02-26T01:50:38;10.10;70.30
1107;DHT22;540;49.448;8.612;2024-02-26T01:53:06;10.50;72.60
1107;DHT22;540;49.448;8.612;2024-02-26T01:55:34;10.20;72.30
1107;DHT22;540;49.448;8.612;2024-02-26T01:58:03;10.30;73.00
1107;DHT22;540;49.448;8.612;2024-02-26T02:00:31;10.40;74.30
1107;DHT22;540;49.448;8.612;2024-02-26T02:03:00;10.10;75.20
1107;DHT22;540;49.448;8.612;2024-02-26T02:05:31;9.90;77.00
1107;DHT22;540;49.448;8.612;2024-02-26T02:08:00;10.00;76.60
1107;DHT22;540;49.448;8.612;2024-02-26T02:10:29;9.80;79.40
1107;DHT22;540;49.448;8.612;2024-02-26T02:12:57;10.10;80.50
1107;DHT22;540;49.448;8.612;2024-02-26T02:15:25;10.10;81.80
1107;DHT22;540;49.448;8.612;2024-02-26T02:17:53;10.00;84.60
1107;DHT22;540;49.448;8.612;2024-02-26T02:20:25;9.80;86.90
1107;DHT22;540;49.448;8.612;2024-02-26T02:22:54;9.90;88.60
1107;DHT22;540;49.448;8.612;2024-02-26T02:25:21;9.80;89.20
1107;DHT22;540;49.448;8.612;2024-02-26T02:27:50;9.70;89.80
1107;DHT22;540;49.448;8.612;2024-02-26T02:30:18;9.90;90.30
1107;DHT22;540;49.448;8.612;2024-02-26T02:32:46;9.70;90.50
1107;DHT22;540;49.448;8.612;2024-02-26T02:35:14;9.70;91.10
1107;DHT22;540;49.448;8.612;2024-02-26T02:37:43;9.30;92.00
1107;DHT22;540;49.448;8.612;2024-02-26T02:40:11;9.40;91.70
1107;DHT22;540;49.448;8.612;2024-02-26T02:42:39;9.40;92.50
1107;DHT22;540;49.448;8.612;2024-02-26T02:45:08;9.50;93.00
1107;DHT22;540;49.448;8.612;2024-02-26T02:47:36;9.50;93.10
1107;DHT22;540;49.448;8.612;2024-02-26T02:50:06;9.40;92.20
1107;DHT22;540;49.448;8.612;2024-02-26T02:52:34;9.40;92.80
1107;DHT22;540;49.448;8.612;2024-02-26T02:55:04;9.70;93.40
1107;DHT22;540;49.448;8.612;2024-02-26T02:57:32;9.50;92.90
1107;DHT22;540;49.448;8.612;2024-02-26T03:00:00;9.30;92.60
1107;DHT22;540;49.448;8.612;2024-02-26T03:02:30;9.50;92.90
1107;DHT22;540;49.448;8.612;2024-02-26T03:04:58;9.40;93.50
1107;DHT22;540;49.448;8.612;2024-02-26T03:07:26;9.20;93.40
1107;DHT22;540;49.448;8.612;2024-02-26T03:09:54;9.10;93.80
1107;DHT22;540;49.448;8.612;2024-02-26T03:12:23;9.20;93.80
1107;DHT22;540;49.448;8.612;2024-02-26T03:14:51;9.20;93.80
1107;DHT22;540;49.448;8.612;2024-02-26T03:17:20;9.40;93.70
1107;DHT22;540;49.448;8.612;2024-02-26T03:19:50;9.30;93.20
1107;DHT22;540;49.448;8.612;2024-02-26T03:22:20;9.20;93.60
1107;DHT22;540;49.448;8.612;2024-02-26T03:24:48;9.30;93.70
1107;DHT22;540;49.448;8.612;2024-02-26T03:27:16;9.40;93.30
1107;DHT22;540;49.448;8.612;2024-02-26T03:29:45;9.20;93.50
1107;DHT22;540;49.448;8.612;2024-02-26T03:32:14;9.30;93.40
1107;DHT22;540;49.448;8.612;2024-02-26T03:34:42;9.30;94.10
1107;DHT22;540;49.448;8.612;2024-02-26T03:37:10;9.40;94.30
1107;DHT22;540;49.448;8.612;2024-02-26T03:39:38;9.40;95.50
1107;DHT22;540;49.448;8.612;2024-02-26T03:42:06;9.20;96.10
1107;DHT22;540;49.448;8.612;2024-02-26T03:44:33;9.10;97.00
1107;DHT22;540;49.448;8.612;2024-02-26T03:47:03;9.30;97.60
1107;DHT22;540;49.448;8.612;2024-02-26T03:49:31;9.30;99.00
1107;DHT22;540;49.448;8.612;2024-02-26T03:51:59;8.80;99.60
1107;DHT22;540;49.448;8.612;2024-02-26T03:54:26;8.70;99.90
1107;DHT22;540;49.448;8.612;2024-02-26T03:56:54;9.00;99.90
1107;DHT22;540;49.448;8.612;2024-02-26T03:59:22;8.50;99.90
1107;DHT22;540;49.448;8.612;2024-02-26T04:01:51;8.90;99.90
1107;DHT22;540;49.448;8.612;2024-02-26T04:04:20;8.60;99.90
1107;DHT22;540;49.448;8.612;2024-02-26T04:06:48;8.60;99.90
1107;DHT22;540;49.448;8.612;2024-02-26T04:09:16;8.50;99.90
1107;DHT22;540;49.448;8.612;2024-02-26T04:11:45;8.40;99.90
1107;DHT22;540;49.448;8.612;2024-02-26T04:14:13;8.20;99.90
1107;DHT22;540;49.448;8.612;2024-02-26T04:16:40;8.30;99.90
1107;DHT22;540;49.448;8.612;2024-02-26T04:19:08;8.30;99.90
1107;DHT22;540;49.448;8.612;2024-02-26T04:21:37;8.20;99.90
1107;DHT22;540;49.448;8.612;2024-02-26T04:24:05;8.40;99.90
1107;DHT22;540;49.448;8.612;2024-02-26T04:26:34;8.40;99.90
1107;DHT22;540;49.448;8.612;2024-02-26T04:29:02;8.40;99.90
1107;DHT22;540;49.448;8.612;2024-02-26T04:31:29;8.40;99.90
1107;DHT22;540;49.448;8.612;2024-02-26T04:33:59;8.50;99.90
1107;DHT22;540;49.448;8.612;2024-02-26T04:36:27;8.50;99.90
1107;DHT22;540;49.448;8.612;2024-02-26T04:38:57;8.60;99.90
1107;DHT22;540;49.448;8.612;2024-02-26T04:41:25;8.60;99.90
1107;DHT22;540;49.448;8.612;2024-02-26T04:43:53;8.60;99.90
1107;DHT22;540;49.448;8.612;2024-02-26T04:46:21;8.70;99.90
1107;DHT22;540;49.448;8.612;2024-02-26T04:48:49;8.60;99.90
1107;DHT22;540;49.448;8.612;2024-02-26T04:51:18;8.80;99.90
1107;DHT22;540;49.448;8.612;2024-02-26T04:53:46;8.90;99.90
1107;DHT22;540;49.448;8.612;2024-02-26T04:56:15;8.70;99.90
1107;DHT22;540;49.448;8.612;2024-02-26T04:58:43;8.70;99.90
1107;DHT22;540;49.448;8.612;2024-02-26T05:01:11;8.90;99.90
1107;DHT22;540;49.448;8.612;2024-02-26T05:03:39;8.80;99.90
1107;DHT22;540;49.448;8.612;2024-02-26T05:06:07;8.50;99.90
1107;DHT22;540;49.448;8.612;2024-02-26T05:08:35;8.50;99.90
1107;DHT22;540;49.448;8.612;2024-02-26T05:11:05;8.50;99.90
1107;DHT22;540;49.448;8.612;2024-02-26T05:13:34;8.50;99.90
1107;DHT22;540;49.448;8.612;2024-02-26T05:16:02;8.80;99.90
1107;DHT22;540;49.448;8.612;2024-02-26T05:18:30;8.70;99.90
1107;DHT22;540;49.448;8.612;2024-02-26T05:20:58;8.70;99.90
1107;DHT22;540;49.448;8.612;2024-02-26T05:23:27;8.60;99.90
1107;DHT22;540;49.448;8.612;2024-02-26T05:25:55;8.70;99.90
1107;DHT22;540;49.448;8.612;2024-02-26T05:28:23;8.90;99.90
1107;DHT22;540;49.448;8.612;2024-02-26T05:30:52;8.70;99.90
1107;DHT22;540;49.448;8.612;2024-02-26T05:33:20;8.90;99.90
1107;DHT22;540;49.448;8.612;2024-02-26T05:35:48;8.90;99.90
1107;DHT22;540;49.448;8.612;2024-02-26T05:38:16;9.00;99.90
1107;DHT22;540;49.448;8.612;2024-02-26T05:40:44;8.90;99.90
1107;DHT22;540;49.448;8.612;2024-02-26T05:43:12;8.90;99.90
1107;DHT22;540;49.448;8.612;2024-02-26T05:45:42;8.80;99.90
1107;DHT22;540;49.448;8.612;2024-02-26T05:48:11;8.60;99.90
1107;DHT22;540;49.448;8.612;2024-02-26T05:50:39;8.80;99.90
1107;DHT22;540;49.448;8.612;2024-02-26T05:53:07;9.00;99.90
1107;DHT22;540;49.448;8.612;2024-02-26T05:55:35;9.00;99.90
1107;DHT22;540;49.448;8.612;2024-02-26T05:58:02;8.80;99.90
1107;DHT22;540;49.448;8.612;2024-02-26T06:00:30;8.80;99.90
1107;DHT22;540;49.448;8.612;2024-02-26T06:02:58;8.80;99.90
1107;DHT22;540;49.448;8.612;2024-02-26T06:05:28;9.10;99.90
1107;DHT22;540;49.448;8.612;2024-02-26T06:07:56;8.90;99.90
1107;DHT22;540;49.448;8.612;2024-02-26T06:10:24;8.80;99.90
1107;DHT22;540;49.448;8.612;2024-02-26T06:12:51;8.90;99.90
1107;DHT22;540;49.448;8.612;2024-02-26T06:15:19;8.80;99.90
1107;DHT22;540;49.448;8.612;2024-02-26T06:17:47;8.40;99.90
1107;DHT22;540;49.448;8.612;2024-02-26T06:20:15;8.70;99.90
1107;DHT22;540;49.448;8.612;2024-02-26T06:22:44;8.90;99.90
1107;DHT22;540;49.448;8.612;2024-02-26T06:25:12;9.00;99.90
1107;DHT22;540;49.448;8.612;2024-02-26T06:27:40;8.60;99.90
1107;DHT22;540;49.448;8.612;2024-02-26T06:30:09;8.70;99.90
1107;DHT22;540;49.448;8.612;2024-02-26T06:32:38;9.00;99.90
1107;DHT22;540;49.448;8.612;2024-02-26T06:35:06;9.00;99.90
1107;DHT22;540;49.448;8.612;2024-02-26T06:37:35;8.70;99.90
1107;DHT22;540;49.448;8.612;2024-02-26T06:40:06;8.80;99.90
1107;DHT22;540;49.448;8.612;2024-02-26T06:42:34;9.00;99.90
1107;DHT22;540;49.448;8.612;2024-02-26T06:45:03;9.00;99.90
1107;DHT22;540;49.448;8.612;2024-02-26T06:47:31;8.80;99.90
1107;DHT22;540;49.448;8.612;2024-02-26T06:49:59;8.80;99.90
1107;DHT22;540;49.448;8.612;2024-02-26T06:52:28;8.80;99.90
1107;DHT22;540;49.448;8.612;2024-02-26T06:54:55;9.10;99.90
1107;DHT22;540;49.448;8.612;2024-02-26T06:57:24;9.00;99.90
1107;DHT22;540;49.448;8.612;2024-02-26T06:59:52;9.10;99.90
1107;DHT22;540;49.448;8.612;2024-02-26T07:02:20;9.00;99.90
1107;DHT22;540;49.448;8.612;2024-02-26T07:04:48;9.10;99.90
1107;DHT22;540;49.448;8.612;2024-02-26T07:07:16;9.10;99.90
1107;DHT22;540;49.448;8.612;2024-02-26T07:09:44;9.20;99.90
1107;DHT22;540;49.448;8.612;2024-02-26T07:12:12;9.30;99.90
1107;DHT22;540;49.448;8.612;2024-02-26T07:14:42;9.30;99.90
1107;DHT22;540;49.448;8.612;2024-02-26T07:17:10;9.30;99.90
1107;DHT22;540;49.448;8.612;2024-02-26T07:19:37;9.60;99.90
1107;DHT22;540;49.448;8.612;2024-02-26T07:22:06;9.50;99.90
1107;DHT22;540;49.448;8.612;2024-02-26T07:24:33;9.50;99.90
1107;DHT22;540;49.448;8.612;2024-02-26T07:27:01;9.50;99.90
1107;DHT22;540;49.448;8.612;2024-02-26T07:29:29;9.60;99.90
1107;DHT22;540;49.448;8.612;2024-02-26T07:31:58;9.50;99.90
1107;DHT22;540;49.448;8.612;2024-02-26T07:34:26;9.40;99.90
1107;DHT22;540;49.448;8.612;2024-02-26T07:36:56;9.60;99.90
1107;DHT22;540;49.448;8.612;2024-02-26T07:39:24;9.50;99.90
1107;DHT22;540;49.448;8.612;2024-02-26T07:41:52;9.50;99.90
1107;DHT22;540;49.448;8.612;2024-02-26T07:44:20;9.50;99.90
1107;DHT22;540;49.448;8.612;2024-02-26T07:46:48;9.60;99.90
1107;DHT22;540;49.448;8.612;2024-02-26T07:49:17;9.40;99.90
1107;DHT22;540;49.448;8.612;2024-02-26T07:51:45;9.40;99.90
1107;DHT22;540;49.448;8.612;2024-02-26T07:54:13;9.50;99.90
1107;DHT22;540;49.448;8.612;2024-02-26T07:56:42;9.70;99.90
1107;DHT22;540;49.448;8.612;2024-02-26T07:59:10;9.60;99.90
1107;DHT22;540;49.448;8.612;2024-02-26T08:01:38;9.50;99.90
1107;DHT22;540;49.448;8.612;2024-02-26T08:04:08;9.80;99.90
1107;DHT22;540;49.448;8.612;2024-02-26T08:06:37;9.90;99.90
1107;DHT22;540;49.448;8.612;2024-02-26T08:09:05;9.70;99.90
1107;DHT22;540;49.448;8.612;2024-02-26T08:11:33;10.00;99.90
1107;DHT22;540;49.448;8.612;2024-02-26T08:14:01;9.20;99.90
1107;DHT22;540;49.448;8.612;2024-02-26T08:16:29;9.40;99.90
1107;DHT22;540;49.448;8.612;2024-02-26T08:18:59;9.70;99.90
1107;DHT22;540;49.448;8.612;2024-02-26T08:21:27;9.60;99.90
1107;DHT22;540;49.448;8.612;2024-02-26T08:23:57;9.60;99.90
1107;DHT22;540;49.448;8.612;2024-02-26T08:26:25;9.80;99.90
1107;DHT22;540;49.448;8.612;2024-02-26T08:28:53;10.00;99.90
1107;DHT22;540;49.448;8.612;2024-02-26T08:31:22;10.10;99.90
1107;DHT22;540;49.448;8.612;2024-02-26T08:33:51;10.30;99.90
1107;DHT22;540;49.448;8.612;2024-02-26T08:36:19;10.20;99.90
1107;DHT22;540;49.448;8.612;2024-02-26T08:38:47;10.10;99.90
1107;DHT22;540;49.448;8.612;2024-02-26T08:41:16;10.50;99.90
1107;DHT22;540;49.448;8.612;2024-02-26T08:43:44;10.50;99.90
1107;DHT22;540;49.448;8.612;2024-02-26T08:46:12;10.80;99.90
1107;DHT22;540;49.448;8.612;2024-02-26T08:48:40;10.70;99.90
1107;DHT22;540;49.448;8.612;2024-02-26T08:51:09;10.70;99.90
1107;DHT22;540;49.448;8.612;2024-02-26T08:53:38;10.70;99.90
1107;DHT22;540;49.448;8.612;2024-02-26T08:56:09;10.70;99.90
1107;DHT22;540;49.448;8.612;2024-02-26T08:58:45;10.80;99.20
1107;DHT22;540;49.448;8.612;2024-02-26T09:01:16;10.60;99.20
1107;DHT22;540;49.448;8.612;2024-02-26T09:03:45;10.60;99.30
1107;DHT22;540;49.448;8.612;2024-02-26T09:06:15;10.60;98.80
1107;DHT22;540;49.448;8.612;2024-02-26T09:08:44;10.70;99.30
1107;DHT22;540;49.448;8.612;2024-02-26T09:11:12;10.70;99.20
1107;DHT22;540;49.448;8.612;2024-02-26T09:13:42;10.40;98.10
1107;DHT22;540;49.448;8.612;2024-02-26T09:16:12;10.70;98.50
1107;DHT22;540;49.448;8.612;2024-02-26T09:18:41;10.70;98.10
1107;DHT22;540;49.448;8.612;2024-02-26T09:21:10;10.70;98.10
1107;DHT22;540;49.448;8.612;2024-02-26T09:23:39;10.80;97.80
1107;DHT22;540;49.448;8.612;2024-02-26T09:26:08;10.70;98.30
1107;DHT22;540;49.448;8.612;2024-02-26T09:28:37;10.80;98.30
1107;DHT22;540;49.448;8.612;2024-02-26T09:31:06;10.60;97.80
1107;DHT22;540;49.448;8.612;2024-02-26T09:33:36;10.70;98.00
1107;DHT22;540;49.448;8.612;2024-02-26T09:36:06;11.00;97.20
1107;DHT22;540;49.448;8.612;2024-02-26T09:38:34;10.70;96.80
1107;DHT22;540;49.448;8.612;2024-02-26T09:41:21;10.70;96.40
1107;DHT22;540;49.448;8.612;2024-02-26T09:43:52;10.70;96.90
1107;DHT22;540;49.448;8.612;2024-02-26T09:46:23;10.40;96.50
1107;DHT22;540;49.448;8.612;2024-02-26T09:48:54;10.90;96.10
1107;DHT22;540;49.448;8.612;2024-02-26T09:51:23;11.00;96.20
1107;DHT22;540;49.448;8.612;2024-02-26T09:53:52;11.00;96.20
1107;DHT22;540;49.448;8.612;2024-02-26T09:56:21;11.20;95.80
1107;DHT22;540;49.448;8.612;2024-02-26T09:58:50;11.10;95.90
1107;DHT22;540;49.448;8.612;2024-02-26T10:01:21;10.60;95.30
1107;DHT22;540;49.448;8.612;2024-02-26T10:03:54;11.10;95.50
1107;DHT22;540;49.448;8.612;2024-02-26T10:06:23;11.20;95.40
1107;DHT22;540;49.448;8.612;2024-02-26T10:08:53;11.40;94.90
1107;DHT22;540;49.448;8.612;2024-02-26T10:11:22;11.40;94.70
1107;DHT22;540;49.448;8.612;2024-02-26T10:13:51;11.90;93.80
1107;DHT22;540;49.448;8.612;2024-02-26T10:16:19;11.90;92.80
1107;DHT22;540;49.448;8.612;2024-02-26T10:18:48;12.40;91.80
1107;DHT22;540;49.448;8.612;2024-02-26T10:21:21;12.60;90.30
1107;DHT22;540;49.448;8.612;2024-02-26T10:23:49;12.80;89.20
1107;DHT22;540;49.448;8.612;2024-02-26T10:26:18;12.90;88.30
1107;DHT22;540;49.448;8.612;2024-02-26T10:28:46;12.40;87.40
1107;DHT22;540;49.448;8.612;2024-02-26T10:31:20;13.00;87.20
1107;DHT22;540;49.448;8.612;2024-02-26T10:33:49;12.80;86.30
1107;DHT22;540;49.448;8.612;2024-02-26T10:36:17;13.70;84.80
1107;DHT22;540;49.448;8.612;2024-02-26T10:38:48;14.10;83.00
1107;DHT22;540;49.448;8.612;2024-02-26T10:41:17;14.70;82.20
1107;DHT22;540;49.448;8.612;2024-02-26T10:43:45;15.00;79.10
1107;DHT22;540;49.448;8.612;2024-02-26T10:46:14;15.00;78.30
1107;DHT22;540;49.448;8.612;2024-02-26T10:48:49;15.30;76.40
1107;DHT22;540;49.448;8.612;2024-02-26T10:51:20;15.10;76.40
1107;DHT22;540;49.448;8.612;2024-02-26T10:53:50;14.80;76.80
1107;DHT22;540;49.448;8.612;2024-02-26T10:56:20;14.70;78.00
1107;DHT22;540;49.448;8.612;2024-02-26T10:58:49;15.40;77.00
1107;DHT22;540;49.448;8.612;2024-02-26T11:01:18;16.40;72.80
1107;DHT22;540;49.448;8.612;2024-02-26T11:03:48;16.80;69.70
1107;DHT22;540;49.448;8.612;2024-02-26T11:06:18;17.60;68.20
1107;DHT22;540;49.448;8.612;2024-02-26T11:08:49;17.50;67.20
1107;DHT22;540;49.448;8.612;2024-02-26T11:11:18;17.40;65.00
1107;DHT22;540;49.448;8.612;2024-02-26T11:13:48;17.50;65.10
1107;DHT22;540;49.448;8.612;2024-02-26T11:16:18;17.90;63.70
1107;DHT22;540;49.448;8.612;2024-02-26T11:18:47;18.00;60.70
1107;DHT22;540;49.448;8.612;2024-02-26T11:21:16;17.70;60.50
1107;DHT22;540;49.448;8.612;2024-02-26T11:23:45;17.20;61.10
1107;DHT22;540;49.448;8.612;2024-02-26T11:26:16;17.60;61.60
1107;DHT22;540;49.448;8.612;2024-02-26T11:28:45;17.30;63.20
1107;DHT22;540;49.448;8.612;2024-02-26T11:31:13;17.40;62.60
1107;DHT22;540;49.448;8.612;2024-02-26T11:33:41;17.20;60.90
1107;DHT22;540;49.448;8.612;2024-02-26T11:36:11;17.30;61.50
1107;DHT22;540;49.448;8.612;2024-02-26T11:38:39;17.60;61.00
1107;DHT22;540;49.448;8.612;2024-02-26T11:41:08;17.20;60.50
1107;DHT22;540;49.448;8.612;2024-02-26T11:43:51;17.00;61.40
1107;DHT22;540;49.448;8.612;2024-02-26T11:46:26;16.60;62.50
1107;DHT22;540;49.448;8.612;2024-02-26T11:48:56;16.40;63.60
1107;DHT22;540;49.448;8.612;2024-02-26T11:51:26;16.30;64.10
1107;DHT22;540;49.448;8.612;2024-02-26T11:53:54;16.10;65.70
1107;DHT22;540;49.448;8.612;2024-02-26T11:56:25;16.10;66.90
1107;DHT22;540;49.448;8.612;2024-02-26T11:59:04;15.80;66.90
1107;DHT22;540;49.448;8.612;2024-02-26T12:01:37;15.60;66.70
1107;DHT22;540;49.448;8.612;2024-02-26T12:04:07;15.60;66.90
1107;DHT22;540;49.448;8.612;2024-02-26T12:06:43;15.20;68.00
1107;DHT22;540;49.448;8.612;2024-02-26T12:09:12;15.30;68.50
1107;DHT22;540;49.448;8.612;2024-02-26T12:11:42;15.40;69.00
1107;DHT22;540;49.448;8.612;2024-02-26T12:14:13;15.20;70.20
1107;DHT22;540;49.448;8.612;2024-02-26T12:16:41;15.00;69.70
1107;DHT22;540;49.448;8.612;2024-02-26T12:19:12;15.00;70.20
1107;DHT22;540;49.448;8.612;2024-02-26T12:21:40;15.60;70.60
1107;DHT22;540;49.448;8.612;2024-02-26T12:24:10;15.40;69.30
1107;DHT22;540;49.448;8.612;2024-02-26T12:26:39;15.20;69.30
1107;DHT22;540;49.448;8.612;2024-02-26T12:29:08;15.40;69.90
1107;DHT22;540;49.448;8.612;2024-02-26T12:31:37;15.00;70.10
1107;DHT22;540;49.448;8.612;2024-02-26T12:34:07;15.10;70.40
1107;DHT22;540;49.448;8.612;2024-02-26T12:36:36;15.10;70.50
1107;DHT22;540;49.448;8.612;2024-02-26T12:39:05;14.90;71.10
1107;DHT22;540;49.448;8.612;2024-02-26T12:41:34;14.90;71.30
1107;DHT22;540;49.448;8.612;2024-02-26T12:44:02;15.00;71.10
1107;DHT22;540;49.448;8.612;2024-02-26T12:46:29;14.90;70.60
1107;DHT22;540;49.448;8.612;2024-02-26T12:48:59;15.10;71.30
1107;DHT22;540;49.448;8.612;2024-02-26T12:51:27;15.30;69.30
1107;DHT22;540;49.448;8.612;2024-02-26T12:53:56;15.50;69.00
1107;DHT22;540;49.448;8.612;2024-02-26T12:56:25;15.80;67.70
1107;DHT22;540;49.448;8.612;2024-02-26T12:58:53;16.40;66.40
1107;DHT22;540;49.448;8.612;2024-02-26T13:01:23;17.00;64.60
1107;DHT22;540;49.448;8.612;2024-02-26T13:03:53;17.30;64.30
1107;DHT22;540;49.448;8.612;2024-02-26T13:06:22;17.40;63.30
1107;DHT22;540;49.448;8.612;2024-02-26T13:08:56;17.40;61.60
1107;DHT22;540;49.448;8.612;2024-02-26T13:11:24;17.30;61.60
1107;DHT22;540;49.448;8.612;2024-02-26T13:13:53;17.70;61.00
1107;DHT22;540;49.448;8.612;2024-02-26T13:16:24;18.20;59.60
1107;DHT22;540;49.448;8.612;2024-02-26T13:18:52;18.10;58.90
1107;DHT22;540;49.448;8.612;2024-02-26T13:21:21;17.90;59.30
1107;DHT22;540;49.448;8.612;2024-02-26T13:23:52;18.00;58.70
1107;DHT22;540;49.448;8.612;2024-02-26T13:26:22;18.30;58.30
1107;DHT22;540;49.448;8.612;2024-02-26T13:29:01;19.00;58.30
1107;DHT22;540;49.448;8.612;2024-02-26T13:31:30;19.50;57.10
1107;DHT22;540;49.448;8.612;2024-02-26T13:33:57;19.70;55.90
1107;DHT22;540;49.448;8.612;2024-02-26T13:36:27;19.70;55.90
1107;DHT22;540;49.448;8.612;2024-02-26T13:38:55;19.70;55.90
1107;DHT22;540;49.448;8.612;2024-02-26T13:41:23;19.40;55.70
1107;DHT22;540;49.448;8.612;2024-02-26T13:43:51;19.30;56.70
1107;DHT22;540;49.448;8.612;2024-02-26T13:46:19;19.00;56.80
1107;DHT22;540;49.448;8.612;2024-02-26T13:48:47;18.40;56.60
1107;DHT22;540;49.448;8.612;2024-02-26T13:51:15;18.30;57.90
1107;DHT22;540;49.448;8.612;2024-02-26T13:53:45;18.40;57.50
1107;DHT22;540;49.448;8.612;2024-02-26T13:56:13;18.20;57.70
1107;DHT22;540;49.448;8.612;2024-02-26T13:58:42;18.10;58.40
1107;DHT22;540;49.448;8.612;2024-02-26T14:01:10;18.00;59.40
1107;DHT22;540;49.448;8.612;2024-02-26T14:03:38;17.90;59.80
1107;DHT22;540;49.448;8.612;2024-02-26T14:06:06;17.50;59.80
1107;DHT22;540;49.448;8.612;2024-02-26T14:08:34;17.40;60.80
1107;DHT22;540;49.448;8.612;2024-02-26T14:11:05;17.20;61.20
1107;DHT22;540;49.448;8.612;2024-02-26T14:13:33;17.40;62.20
1107;DHT22;540;49.448;8.612;2024-02-26T14:16:06;17.40;62.50
1107;DHT22;540;49.448;8.612;2024-02-26T14:18:34;17.10;62.60
1107;DHT22;540;49.448;8.612;2024-02-26T14:21:02;17.10;63.20
1107;DHT22;540;49.448;8.612;2024-02-26T14:23:30;17.00;63.20
1107;DHT22;540;49.448;8.612;2024-02-26T14:25:58;17.00;64.10
1107;DHT22;540;49.448;8.612;2024-02-26T14:28:28;16.90;64.40
1107;DHT22;540;49.448;8.612;2024-02-26T14:31:03;16.80;63.40
1107;DHT22;540;49.448;8.612;2024-02-26T14:33:32;16.80;63.30
1107;DHT22;540;49.448;8.612;2024-02-26T14:36:00;17.00;64.90
1107;DHT22;540;49.448;8.612;2024-02-26T14:38:28;16.50;64.20
1107;DHT22;540;49.448;8.612;2024-02-26T14:40:57;16.70;64.70
1107;DHT22;540;49.448;8.612;2024-02-26T14:43:25;16.60;63.30
1107;DHT22;540;49.448;8.612;2024-02-26T14:45:54;16.50;63.40
1107;DHT22;540;49.448;8.612;2024-02-26T14:48:22;16.30;63.60
1107;DHT22;540;49.448;8.612;2024-02-26T14:50:50;16.10;63.70
1107;DHT22;540;49.448;8.612;2024-02-26T14:53:19;16.20;64.30
1107;DHT22;540;49.448;8.612;2024-02-26T14:55:46;16.50;64.50
1107;DHT22;540;49.448;8.612;2024-02-26T14:58:15;16.50;64.80
1107;DHT22;540;49.448;8.612;2024-02-26T15:00:43;16.40;64.90
1107;DHT22;540;49.448;8.612;2024-02-26T15:03:12;16.50;65.50
1107;DHT22;540;49.448;8.612;2024-02-26T15:05:40;16.30;65.60
1107;DHT22;540;49.448;8.612;2024-02-26T15:08:08;16.10;66.50
1107;DHT22;540;49.448;8.612;2024-02-26T15:10:41;16.40;67.40
1107;DHT22;540;49.448;8.612;2024-02-26T15:13:15;16.30;67.60
1107;DHT22;540;49.448;8.612;2024-02-26T15:15:44;16.40;67.30
1107;DHT22;540;49.448;8.612;2024-02-26T15:18:14;16.20;67.40
1107;DHT22;540;49.448;8.612;2024-02-26T15:20:44;16.30;66.10
1107;DHT22;540;49.448;8.612;2024-02-26T15:23:12;16.10;65.60
1107;DHT22;540;49.448;8.612;2024-02-26T15:25:40;16.50;65.80
1107;DHT22;540;49.448;8.612;2024-02-26T15:28:08;16.30;66.50
1107;DHT22;540;49.448;8.612;2024-02-26T15:30:38;16.10;66.30
1107;DHT22;540;49.448;8.612;2024-02-26T15:33:05;15.90;67.20
1107;DHT22;540;49.448;8.612;2024-02-26T15:35:35;15.70;68.30
1107;DHT22;540;49.448;8.612;2024-02-26T15:38:04;15.50;69.20
1107;DHT22;540;49.448;8.612;2024-02-26T15:40:31;15.60;69.80
1107;DHT22;540;49.448;8.612;2024-02-26T15:42:59;15.20;68.90
1107;DHT22;540;49.448;8.612;2024-02-26T15:45:27;15.10;69.60
1107;DHT22;540;49.448;8.612;2024-02-26T15:47:59;15.20;69.50
1107;DHT22;540;49.448;8.612;2024-02-26T15:50:27;15.30;69.60
1107;DHT22;540;49.448;8.612;2024-02-26T15:52:56;14.90;70.90
1107;DHT22;540;49.448;8.612;2024-02-26T15:55:25;14.80;72.10
1107;DHT22;540;49.448;8.612;2024-02-26T15:57:52;15.20;71.70
1107;DHT22;540;49.448;8.612;2024-02-26T16:00:21;15.10;72.20
1107;DHT22;540;49.448;8.612;2024-02-26T16:02:49;15.30;72.80
1107;DHT22;540;49.448;8.612;2024-02-26T16:05:17;15.10;72.90
1107;DHT22;540;49.448;8.612;2024-02-26T16:07:49;14.40;72.40
1107;DHT22;540;49.448;8.612;2024-02-26T16:10:19;15.00;73.40
1107;DHT22;540;49.448;8.612;2024-02-26T16:12:53;14.80;74.00
1107;DHT22;540;49.448;8.612;2024-02-26T16:15:22;14.80;74.50
1107;DHT22;540;49.448;8.612;2024-02-26T16:17:51;14.80;75.30
1107;DHT22;540;49.448;8.612;2024-02-26T16:20:23;14.80;76.60
1107;DHT22;540;49.448;8.612;2024-02-26T16:22:51;14.90;77.90
1107;DHT22;540;49.448;8.612;2024-02-26T16:25:20;14.60;77.30
1107;DHT22;540;49.448;8.612;2024-02-26T16:27:49;14.40;76.80
1107;DHT22;540;49.448;8.612;2024-02-26T16:30:18;14.60;78.40
1107;DHT22;540;49.448;8.612;2024-02-26T16:32:45;14.30;80.30
1107;DHT22;540;49.448;8.612;2024-02-26T16:35:14;14.20;82.50